createdAt,value
2023-08-09T00:04:47.817Z,32.50
2023-08-09T00:09:50.951Z,32.50
2023-08-09T00:14:55.434Z,32.30
2023-08-09T00:19:58.634Z,32.30
2023-08-09T00:25:01.819Z,32.10
2023-08-09T00:30:08.729Z,32.00
2023-08-09T00:35:11.958Z,32.30
2023-08-09T00:40:15.054Z,32.10
2023-08-09T00:45:19.592Z,32.40
2023-08-09T00:50:22.949Z,32.60
2023-08-09T00:55:26.191Z,32.70
2023-08-09T01:00:30.839Z,32.70
2023-08-09T01:05:40.086Z,33.30
2023-08-09T01:10:50.765Z,33.50
2023-08-09T01:15:56.156Z,34.10
2023-08-09T01:21:01.501Z,34.30
2023-08-09T01:26:06.678Z,34.00
2023-08-09T01:31:09.842Z,34.90
2023-08-09T01:36:20.753Z,34.20
2023-08-09T01:41:25.259Z,36.10
2023-08-09T01:46:29.107Z,35.30
2023-08-09T01:51:32.298Z,35.00
2023-08-09T01:56:37.374Z,35.10
2023-08-09T02:01:40.512Z,36.10
2023-08-09T02:06:43.775Z,35.30
2023-08-09T02:11:48.321Z,35.70
2023-08-09T02:16:51.622Z,35.80
2023-08-09T02:21:54.764Z,35.60
2023-08-09T02:26:59.499Z,35.50
2023-08-09T02:32:03.300Z,36.30
2023-08-09T02:37:06.595Z,35.90
2023-08-09T02:42:11.148Z,36.10
2023-08-09T02:47:14.254Z,36.80
2023-08-09T02:52:17.502Z,36.40
2023-08-09T02:57:21.989Z,37.40
2023-08-09T03:02:25.166Z,37.10
2023-08-09T03:07:28.966Z,36.60
2023-08-09T03:12:33.484Z,36.70
2023-08-09T03:17:36.747Z,37.50
2023-08-09T03:22:39.909Z,36.80
2023-08-09T03:27:44.598Z,36.90
2023-08-09T03:32:47.798Z,37.60
2023-08-09T03:37:51.772Z,36.90
2023-08-09T03:42:56.256Z,37.20
2023-08-09T03:47:59.473Z,37.60
2023-08-09T03:53:02.643Z,37.20
2023-08-09T03:58:07.293Z,37.40
2023-08-09T04:03:10.470Z,38.50
2023-08-09T04:08:13.760Z,38.00
2023-08-09T04:13:18.256Z,38.10
2023-08-09T04:18:21.849Z,38.90
2023-08-09T04:23:25.603Z,38.30
2023-08-09T04:28:30.286Z,38.60
2023-08-09T04:33:33.546Z,39.40
2023-08-09T04:38:36.765Z,38.90
2023-08-09T04:43:44.800Z,39.10
2023-08-09T04:48:48.133Z,40.80
2023-08-09T04:53:51.233Z,39.50
2023-08-09T04:58:55.727Z,39.50
2023-08-09T05:03:58.972Z,40.30
2023-08-09T05:09:02.146Z,39.90
2023-08-09T05:14:07.790Z,40.00
2023-08-09T05:19:11.302Z,40.90
2023-08-09T05:24:15.682Z,40.60
2023-08-09T05:29:20.162Z,40.80
2023-08-09T05:34:23.450Z,41.50
2023-08-09T05:39:26.902Z,41.10
2023-08-09T05:44:31.540Z,41.10
2023-08-09T05:49:35.924Z,42.20
2023-08-09T05:54:39.093Z,42.30
2023-08-09T05:59:43.673Z,41.70
2023-08-09T06:04:46.897Z,43.40
2023-08-09T06:09:50.064Z,42.00
2023-08-09T06:14:54.565Z,42.30
2023-08-09T06:19:57.676Z,43.30
2023-08-09T06:25:01.012Z,42.40
2023-08-09T06:30:07.292Z,42.50
2023-08-09T06:35:14.028Z,43.50
2023-08-09T06:40:18.144Z,42.60
2023-08-09T06:45:22.662Z,42.70
2023-08-09T06:50:25.892Z,43.50
2023-08-09T06:55:29.050Z,43.20
2023-08-09T07:00:33.564Z,43.20
2023-08-09T07:05:36.680Z,44.10
2023-08-09T07:10:39.961Z,43.30
2023-08-09T07:15:44.428Z,43.30
2023-08-09T07:20:47.652Z,43.90
2023-08-09T07:25:50.935Z,43.40
2023-08-09T07:30:56.335Z,43.40
2023-08-09T07:35:59.482Z,44.20
2023-08-09T07:41:03.135Z,43.60
2023-08-09T07:46:08.031Z,43.60
2023-08-09T07:51:13.390Z,44.30
2023-08-09T07:56:16.841Z,43.60
2023-08-09T08:01:21.465Z,43.40
2023-08-09T08:06:24.677Z,44.10
2023-08-09T08:11:27.809Z,43.50
2023-08-09T08:16:32.861Z,43.50
2023-08-09T08:21:36.257Z,43.90
2023-08-09T08:26:40.503Z,43.40
2023-08-09T08:31:45.345Z,43.30
2023-08-09T08:36:48.696Z,43.70
2023-08-09T08:41:52.843Z,43.40
2023-08-09T08:46:57.468Z,43.50
2023-08-09T08:52:02.733Z,43.80
2023-08-09T08:57:08.683Z,43.70
2023-08-09T09:02:14.369Z,44.20
2023-08-09T09:07:17.568Z,43.80
2023-08-09T09:12:22.366Z,43.80
2023-08-09T09:17:28.444Z,43.70
2023-08-09T09:22:35.575Z,43.80
2023-08-09T09:27:41.774Z,43.20
2023-08-09T09:32:58.294Z,43.20
2023-08-09T09:38:03.166Z,44.10
2023-08-09T09:43:07.562Z,43.40
2023-08-09T09:48:19.212Z,43.20
2023-08-09T09:53:23.037Z,44.20
2023-08-09T09:58:26.188Z,43.40
2023-08-09T10:03:43.936Z,43.50
2023-08-09T10:08:57.646Z,45.10
2023-08-09T10:14:05.188Z,44.50
2023-08-09T10:19:16.165Z,45.00
2023-08-09T10:24:20.043Z,45.40
2023-08-09T10:29:26.220Z,44.70
2023-08-09T10:34:44.355Z,44.50
2023-08-09T10:39:49.731Z,45.60
2023-08-09T10:44:53.559Z,44.40
2023-08-09T10:50:04.990Z,43.60
2023-08-09T10:55:38.393Z,44.30
2023-08-09T11:00:42.862Z,44.90
2023-08-09T11:05:47.657Z,45.00
2023-08-09T11:10:50.794Z,45.20
2023-08-09T11:15:54.676Z,45.10
2023-08-09T11:20:59.194Z,44.30
2023-08-09T11:26:03.644Z,43.90
2023-08-09T11:31:07.423Z,43.90
2023-08-09T11:36:12.177Z,44.00
2023-08-09T11:41:20.906Z,44.00
2023-08-09T11:46:24.972Z,43.80
2023-08-09T11:51:32.674Z,43.00
2023-08-09T11:56:38.003Z,43.20
2023-08-09T12:01:43.005Z,43.70
2023-08-09T12:06:52.189Z,42.60
2023-08-09T12:11:55.649Z,42.70
2023-08-09T12:16:59.105Z,42.70
2023-08-09T12:22:05.409Z,42.30
2023-08-09T12:27:08.866Z,42.70
2023-08-09T12:32:12.204Z,42.30
2023-08-09T12:37:16.848Z,41.50
2023-08-09T12:42:19.970Z,41.20
2023-08-09T12:47:23.121Z,41.30
2023-08-09T12:52:27.624Z,41.50
2023-08-09T12:57:30.858Z,42.10
2023-08-09T13:02:34.077Z,43.00
2023-08-09T13:07:38.602Z,43.00
2023-08-09T13:12:41.730Z,42.20
2023-08-09T13:17:46.326Z,42.10
2023-08-09T13:22:50.879Z,42.20
2023-08-09T13:27:54.098Z,41.70
2023-08-09T13:32:57.965Z,41.90
2023-08-09T13:38:05.757Z,41.90
2023-08-09T13:43:08.911Z,42.80
2023-08-09T13:48:12.129Z,42.20
2023-08-09T13:53:17.078Z,43.10
2023-08-09T13:58:20.236Z,43.00
2023-08-09T14:03:23.447Z,42.90
2023-08-09T14:08:27.941Z,43.20
2023-08-09T14:13:31.833Z,43.20
2023-08-09T14:18:35.040Z,43.20
2023-08-09T14:23:40.747Z,43.30
2023-08-09T14:28:44.231Z,43.50
2023-08-09T14:33:50.146Z,43.40
2023-08-09T14:38:54.872Z,43.20
2023-08-09T14:43:58.000Z,43.20
2023-08-09T14:54:08.613Z,43.00
2023-08-09T14:59:11.951Z,43.20
2023-08-09T15:04:19.604Z,43.20
2023-08-09T15:09:25.442Z,43.30
2023-08-09T15:14:28.574Z,43.60
2023-08-09T15:19:31.728Z,43.60
2023-08-09T15:24:36.274Z,43.40
2023-08-09T15:29:39.408Z,43.70
2023-08-09T15:34:42.742Z,43.40
2023-08-09T15:39:47.279Z,43.20
2023-08-09T15:44:50.399Z,43.70
2023-08-09T15:49:53.530Z,43.40
2023-08-09T15:54:58.047Z,43.30
2023-08-09T16:00:01.208Z,43.50
2023-08-09T16:05:04.705Z,43.40
2023-08-09T16:10:10.971Z,43.50
2023-08-09T16:15:14.140Z,43.90
2023-08-09T16:20:17.281Z,43.40
2023-08-09T16:25:22.482Z,43.30
2023-08-09T16:30:25.884Z,43.60
2023-08-09T16:35:30.380Z,43.40
2023-08-09T16:40:36.332Z,43.50
2023-08-09T16:45:39.510Z,43.70
2023-08-09T16:50:42.599Z,43.60
2023-08-09T16:55:47.562Z,43.30
2023-08-09T17:00:50.767Z,43.50
2023-08-09T17:05:53.949Z,43.30
2023-08-09T17:10:58.502Z,43.30
2023-08-09T17:16:01.944Z,43.70
2023-08-09T17:21:06.517Z,43.40
2023-08-09T17:26:12.549Z,43.30
2023-08-09T17:31:15.793Z,43.30
2023-08-09T17:36:18.974Z,43.30
2023-08-09T17:41:23.564Z,43.30
2023-08-09T17:46:26.751Z,43.30
2023-08-09T17:51:29.956Z,43.40
2023-08-09T17:56:34.450Z,43.50
2023-08-09T18:01:37.669Z,43.80
2023-08-09T18:06:40.903Z,44.50
2023-08-09T18:11:45.423Z,43.90
2023-08-09T18:16:49.843Z,44.30
2023-08-09T18:21:52.995Z,44.10
2023-08-09T18:26:57.563Z,44.00
2023-08-09T18:32:00.746Z,44.40
2023-08-09T18:37:04.166Z,44.20
2023-08-09T18:42:09.602Z,44.10
2023-08-09T18:47:12.876Z,44.50
2023-08-09T18:52:16.067Z,44.00
2023-08-09T18:57:20.609Z,44.00
2023-08-09T19:02:23.761Z,44.50
2023-08-09T19:07:27.102Z,44.20
2023-08-09T19:12:31.684Z,44.20
2023-08-09T19:17:35.531Z,44.60
2023-08-09T19:22:38.850Z,44.80
2023-08-09T19:27:43.419Z,44.50
2023-08-09T19:32:46.561Z,44.70
2023-08-09T19:37:49.765Z,44.40
2023-08-09T19:42:54.240Z,44.60
2023-08-09T19:48:00.254Z,45.00
2023-08-09T19:53:03.673Z,44.70
2023-08-09T19:58:08.153Z,44.90
2023-08-09T20:03:11.374Z,45.30
2023-08-09T20:08:14.587Z,45.20
2023-08-09T20:13:22.426Z,45.40
2023-08-09T20:18:26.275Z,46.00
2023-08-09T20:23:29.518Z,45.50
2023-08-09T20:28:33.998Z,45.50
2023-08-09T20:33:37.137Z,45.60
2023-08-09T20:38:40.278Z,44.40
2023-08-09T20:43:44.749Z,43.30
2023-08-09T20:48:47.879Z,43.00
2023-08-09T20:53:51.434Z,43.30
2023-08-09T20:58:56.220Z,42.90
2023-08-09T21:04:00.325Z,42.70
2023-08-09T21:09:03.553Z,42.80
2023-08-09T21:14:08.085Z,43.10
2023-08-09T21:19:11.185Z,43.60
2023-08-09T21:29:24.482Z,44.30
2023-08-09T21:34:27.739Z,44.60
2023-08-09T21:39:30.870Z,44.40
2023-08-09T21:44:35.423Z,44.80
2023-08-09T21:49:38.526Z,45.20
2023-08-09T21:54:41.643Z,45.10
2023-08-09T21:59:46.214Z,45.10
2023-08-09T22:04:49.335Z,45.40
2023-08-09T22:09:52.468Z,45.00
2023-08-09T22:14:56.948Z,44.70
2023-08-09T22:20:00.055Z,44.70
2023-08-09T22:25:03.720Z,44.50
2023-08-09T22:30:09.667Z,44.50
2023-08-09T22:35:12.804Z,44.60
2023-08-09T22:40:15.987Z,44.30
2023-08-09T22:45:20.776Z,44.90
2023-08-09T22:50:24.663Z,43.80
2023-08-09T22:55:27.933Z,43.80
2023-08-09T23:00:32.805Z,43.80
2023-08-09T23:05:36.261Z,43.40
2023-08-09T23:10:39.409Z,43.40
2023-08-09T23:15:46.248Z,43.40
2023-08-09T23:20:49.380Z,43.40
2023-08-09T23:25:52.533Z,43.50
2023-08-09T23:30:59.260Z,43.50
2023-08-09T23:36:03.892Z,43.90
2023-08-09T23:41:09.186Z,43.20
2023-08-09T23:46:13.758Z,42.90
2023-08-09T23:51:16.930Z,42.60
2023-08-09T23:56:20.070Z,42.80
